Time;durP1;ratioP1;P1;durP2;ratioP2;P2;SDS_P1;SDS_P2;PMS_P1;PMS_P2;Temp;Humidity;BMP_temperature;BMP_pressure;BME280_temperature;BME280_humidity;BME280_pressure;Samples;Min_cycle;Max_cycle;Signal;HPM_P1;HPM_P2
2021/07/13 00:01:45;;;;;;;7.75;6.65;;;14.20;99.90;;;;;;4996034;28;20511;-90
2021/07/13 00:04:13;;;;;;;8.43;6.97;;;14.20;99.90;;;;;;4997990;28;20478;-91
2021/07/13 00:06:46;;;;;;;9.98;7.43;;;14.10;99.90;;;;;;4995950;28;20588;-90
2021/07/13 00:09:13;;;;;;;8.00;6.90;;;14.00;99.90;;;;;;4996996;28;20145;-90
2021/07/13 00:11:40;;;;;;;10.82;7.53;;;14.00;99.90;;;;;;4996548;28;20062;-91
2021/07/13 00:14:07;;;;;;;11.27;6.85;;;13.90;99.90;;;;;;4996324;28;20070;-90
2021/07/13 00:16:33;;;;;;;10.23;7.13;;;14.00;99.90;;;;;;4996063;28;20057;-91
2021/07/13 00:19:01;;;;;;;8.85;7.20;;;13.90;99.90;;;;;;4995634;28;20077;-91
2021/07/13 00:21:27;;;;;;;12.38;8.15;;;13.80;99.90;;;;;;4995713;28;20521;-91
2021/07/13 00:23:54;;;;;;;12.18;8.13;;;13.80;99.90;;;;;;4995636;28;20150;-91
2021/07/13 00:26:21;;;;;;;8.77;7.95;;;13.80;99.90;;;;;;4995476;28;20056;-90
2021/07/13 00:28:48;;;;;;;13.00;7.85;;;13.70;99.90;;;;;;4995802;28;20141;-90
2021/07/13 00:31:14;;;;;;;10.30;7.80;;;13.70;99.90;;;;;;4995367;28;20050;-90
2021/07/13 00:33:41;;;;;;;8.45;7.60;;;13.70;99.90;;;;;;4995445;28;20141;-90
2021/07/13 00:36:08;;;;;;;8.32;7.53;;;13.70;99.90;;;;;;4994955;28;20137;-90
2021/07/13 00:38:35;;;;;;;8.80;8.00;;;13.60;99.90;;;;;;4995632;28;20054;-90
2021/07/13 00:41:02;;;;;;;9.65;8.68;;;13.70;99.90;;;;;;4995514;28;20058;-88
2021/07/13 00:43:29;;;;;;;10.02;7.63;;;13.60;99.90;;;;;;4995458;28;20552;-90
2021/07/13 00:45:56;;;;;;;8.60;7.28;;;13.60;99.90;;;;;;4995158;28;20137;-91
2021/07/13 00:48:23;;;;;;;9.15;7.95;;;13.60;99.90;;;;;;4995327;28;20487;-90
2021/07/13 00:50:52;;;;;;;11.80;8.38;;;13.70;99.90;;;;;;4994939;28;20057;-90
2021/07/13 00:53:21;;;;;;;9.60;8.07;;;13.80;99.90;;;;;;4995345;28;20434;-90
2021/07/13 00:55:47;;;;;;;6.95;6.32;;;13.80;99.90;;;;;;4995166;28;20141;-90
2021/07/13 00:58:14;;;;;;;8.40;7.53;;;13.90;99.90;;;;;;4995316;28;20050;-90
2021/07/13 01:00:41;;;;;;;10.02;6.97;;;13.90;99.90;;;;;;4995122;28;20050;-90
2021/07/13 01:03:08;;;;;;;6.85;6.25;;;13.80;99.90;;;;;;4995025;28;20050;-89
2021/07/13 01:05:41;;;;;;;7.00;6.50;;;13.80;99.90;;;;;;4994923;28;20400;-89
2021/07/13 01:08:36;;;;;;;10.27;7.03;;;13.80;99.90;;;;;;4995183;28;20072;-91
2021/07/13 01:11:31;;;;;;;8.48;7.30;;;13.70;99.90;;;;;;4995294;28;20046;-90
2021/07/13 01:14:21;;;;;;;9.13;7.30;;;13.60;99.90;;;;;;4994784;28;20509;-90
2021/07/13 01:17:00;;;;;;;8.07;6.95;;;13.60;99.90;;;;;;4994913;28;20060;-90
2021/07/13 01:20:04;;;;;;;10.80;6.38;;;13.60;99.90;;;;;;4994666;28;20472;-90
2021/07/13 01:22:54;;;;;;;9.18;7.50;;;13.60;99.90;;;;;;4994646;28;20050;-90
2021/07/13 01:25:36;;;;;;;10.27;8.57;;;13.50;99.90;;;;;;4994838;28;20053;-90
2021/07/13 01:28:14;;;;;;;7.85;7.05;;;13.40;99.90;;;;;;4994554;28;20156;-91
2021/07/13 01:30:45;;;;;;;8.35;7.65;;;13.60;99.90;;;;;;4994630;28;20054;-90
2021/07/13 01:33:19;;;;;;;7.68;6.88;;;13.60;99.90;;;;;;4994755;28;20105;-90
2021/07/13 01:36:14;;;;;;;9.65;8.15;;;13.60;99.90;;;;;;4994323;28;20058;-90
2021/07/13 01:38:45;;;;;;;9.35;8.45;;;13.50;99.90;;;;;;4994719;28;20051;-90
2021/07/13 01:41:18;;;;;;;9.63;8.73;;;13.50;99.90;;;;;;4994327;28;20046;-90
2021/07/13 01:43:46;;;;;;;10.32;8.48;;;13.60;99.90;;;;;;4994251;28;20050;-90
2021/07/13 01:46:16;;;;;;;13.88;8.38;;;13.50;99.90;;;;;;4994063;28;20447;-90
2021/07/13 01:48:47;;;;;;;13.50;8.85;;;13.50;99.90;;;;;;4994106;28;20047;-91
2021/07/13 01:51:16;;;;;;;8.55;7.85;;;13.50;99.90;;;;;;4994374;28;20376;-91
2021/07/13 01:53:44;;;;;;;9.52;7.90;;;13.60;99.90;;;;;;4993780;28;20056;-90
2021/07/13 01:56:11;;;;;;;10.07;9.07;;;13.60;99.90;;;;;;4994062;28;20058;-90
2021/07/13 01:58:41;;;;;;;8.60;7.78;;;13.60;99.90;;;;;;4993808;28;20509;-91
2021/07/13 02:01:11;;;;;;;10.75;7.43;;;13.70;99.90;;;;;;4993649;28;20050;-91
2021/07/13 02:03:40;;;;;;;10.57;8.05;;;13.70;99.90;;;;;;4993746;28;20072;-90
2021/07/13 02:06:08;;;;;;;8.20;7.40;;;13.60;99.90;;;;;;4993795;28;20054;-90
2021/07/13 02:08:39;;;;;;;6.95;6.40;;;13.50;99.90;;;;;;4993868;28;20137;-91
2021/07/13 02:11:08;;;;;;;8.48;7.78;;;13.40;99.90;;;;;;4993849;28;20133;-91
2021/07/13 02:13:35;;;;;;;8.63;7.68;;;13.40;99.90;;;;;;4993020;28;20414;-90
2021/07/13 02:16:04;;;;;;;8.65;7.75;;;13.50;99.90;;;;;;4993465;28;20058;-90
2021/07/13 02:18:31;;;;;;;7.90;7.20;;;13.50;99.90;;;;;;4993671;28;20056;-91
2021/07/13 02:20:58;;;;;;;7.65;7.05;;;13.40;99.90;;;;;;4993411;28;20077;-90
2021/07/13 02:23:25;;;;;;;9.10;7.40;;;13.40;99.90;;;;;;4993506;28;20046;-90
2021/07/13 02:25:56;;;;;;;7.97;7.25;;;13.30;99.90;;;;;;4993531;28;20058;-91
2021/07/13 02:28:43;;;;;;;8.00;7.15;;;13.20;99.90;;;;;;4993941;28;20141;-89
2021/07/13 02:31:20;;;;;;;8.98;8.07;;;13.20;99.90;;;;;;4994143;28;20054;-90
2021/07/13 02:33:55;;;;;;;9.35;8.45;;;13.10;99.90;;;;;;4993347;28;20066;-90
2021/07/13 02:36:28;;;;;;;8.40;7.68;;;13.10;99.90;;;;;;4993354;28;20069;-91
2021/07/13 02:38:57;;;;;;;10.32;7.47;;;13.20;99.90;;;;;;4993426;28;20396;-91
2021/07/13 02:41:24;;;;;;;11.10;7.45;;;13.20;99.90;;;;;;4993078;28;20057;-91
2021/07/13 02:43:53;;;;;;;10.65;8.43;;;13.20;99.90;;;;;;4993139;28;20137;-91
2021/07/13 02:46:21;;;;;;;8.90;7.95;;;13.10;99.90;;;;;;4993468;28;20133;-91
2021/07/13 02:48:51;;;;;;;10.70;9.40;;;13.20;99.90;;;;;;4993317;28;20141;-91
2021/07/13 02:51:19;;;;;;;9.95;8.55;;;13.20;99.90;;;;;;4993236;28;20558;-92
2021/07/13 02:53:48;;;;;;;10.43;9.02;;;13.30;99.90;;;;;;4992937;28;20046;-91
2021/07/13 02:56:17;;;;;;;12.98;9.75;;;13.40;99.90;;;;;;4993398;28;20604;-91
2021/07/13 02:58:44;;;;;;;10.70;9.00;;;13.40;99.90;;;;;;4996101;28;20058;-91
2021/07/13 03:01:11;;;;;;;11.77;8.82;;;13.50;99.90;;;;;;4997581;28;20050;-90
2021/07/13 03:03:41;;;;;;;15.55;9.50;;;13.40;99.90;;;;;;4997192;28;20073;-91
2021/07/13 03:06:09;;;;;;;9.85;8.38;;;13.40;99.90;;;;;;4996922;28;20510;-91
2021/07/13 03:08:36;;;;;;;25.00;9.23;;;13.60;99.90;;;;;;4996898;28;20513;-90
2021/07/13 03:11:03;;;;;;;15.80;8.52;;;13.60;99.90;;;;;;4997104;28;20050;-92
2021/07/13 03:13:31;;;;;;;21.35;8.95;;;13.70;99.90;;;;;;4996643;28;20054;-90
2021/07/13 03:15:58;;;;;;;14.13;7.70;;;13.80;99.90;;;;;;4996888;28;20105;-91
2021/07/13 03:18:25;;;;;;;10.50;8.45;;;13.90;99.90;;;;;;4996857;28;20054;-90
2021/07/13 03:20:54;;;;;;;12.43;7.68;;;13.90;99.90;;;;;;4996717;28;20133;-90
2021/07/13 03:23:22;;;;;;;8.60;7.45;;;13.90;99.90;;;;;;4997037;28;20056;-91
2021/07/13 03:25:50;;;;;;;10.18;8.13;;;13.90;99.90;;;;;;4996570;28;20422;-91
2021/07/13 03:28:18;;;;;;;9.30;8.05;;;13.90;99.90;;;;;;4996833;28;20109;-91
2021/07/13 03:30:46;;;;;;;10.43;8.30;;;13.90;99.90;;;;;;4996693;28;20093;-91
2021/07/13 03:33:14;;;;;;;8.25;7.40;;;13.90;99.90;;;;;;4996633;28;20141;-90
2021/07/13 03:35:42;;;;;;;14.18;8.25;;;14.00;99.90;;;;;;4996420;28;20046;-90
2021/07/13 03:38:09;;;;;;;13.93;7.97;;;14.10;99.90;;;;;;4996858;28;20050;-90
2021/07/13 03:40:36;;;;;;;11.40;7.82;;;14.10;99.90;;;;;;4996483;28;20070;-91
2021/07/13 03:43:03;;;;;;;13.23;8.23;;;14.20;99.90;;;;;;4996668;28;20054;-91
2021/07/13 03:45:30;;;;;;;11.25;7.68;;;14.20;99.90;;;;;;4996536;28;20050;-91
2021/07/13 03:47:59;;;;;;;11.43;8.02;;;14.20;99.90;;;;;;4996693;28;20066;-90
2021/07/13 03:50:35;;;;;;;9.57;8.63;;;14.10;99.90;;;;;;4996566;28;20100;-91
2021/07/13 03:53:03;;;;;;;12.80;7.78;;;14.10;99.90;;;;;;4996489;28;20046;-92
2021/07/13 03:55:30;;;;;;;11.57;8.40;;;14.20;99.90;;;;;;4996089;28;20050;-91
2021/07/13 03:57:57;;;;;;;10.85;8.98;;;14.30;99.90;;;;;;4996235;28;20058;-92
2021/07/13 04:00:28;;;;;;;10.43;8.63;;;14.40;99.90;;;;;;4996285;28;20100;-91
2021/07/13 04:02:56;;;;;;;9.10;8.15;;;14.50;99.90;;;;;;4996533;28;20054;-91
2021/07/13 04:05:23;;;;;;;8.68;7.47;;;14.60;99.90;;;;;;4996247;28;20054;-89
2021/07/13 04:07:50;;;;;;;7.88;7.15;;;14.70;99.90;;;;;;4996696;28;20058;-90
2021/07/13 04:10:17;;;;;;;8.88;6.95;;;15.00;99.90;;;;;;4995572;28;20108;-90
2021/07/13 04:12:44;;;;;;;7.53;6.68;;;15.10;99.90;;;;;;5003064;28;20058;-90
2021/07/13 04:15:12;;;;;;;7.38;6.13;;;15.30;99.90;;;;;;4995898;28;20112;-89
2021/07/13 04:17:40;;;;;;;6.18;5.57;;;15.30;99.90;;;;;;4995850;28;20483;-90
2021/07/13 04:20:09;;;;;;;5.65;5.10;;;15.30;99.90;;;;;;4995896;28;20054;-90
2021/07/13 04:22:36;;;;;;;7.75;5.30;;;15.40;99.90;;;;;;4995322;28;20047;-89
2021/07/13 04:25:05;;;;;;;6.38;5.10;;;15.40;99.90;;;;;;4995563;28;20046;-90
2021/07/13 04:27:32;;;;;;;9.65;4.90;;;15.40;99.90;;;;;;4995833;28;20077;-90
2021/07/13 04:29:59;;;;;;;5.80;4.93;;;15.50;99.90;;;;;;4995862;28;20047;-90
2021/07/13 04:32:30;;;;;;;6.35;4.68;;;15.70;99.90;;;;;;4995984;28;20051;-90
2021/07/13 04:34:57;;;;;;;4.80;4.38;;;15.70;99.90;;;;;;4995621;28;20138;-90
2021/07/13 04:37:25;;;;;;;11.23;4.50;;;16.00;99.90;;;;;;4995541;28;20157;-90
2021/07/13 04:39:52;;;;;;;6.97;4.20;;;16.10;99.90;;;;;;4995521;28;20062;-90
2021/07/13 04:42:19;;;;;;;4.45;4.13;;;16.40;99.90;;;;;;4995384;28;20499;-90
2021/07/13 04:44:46;;;;;;;4.13;3.83;;;16.50;99.90;;;;;;4995445;28;20137;-90
2021/07/13 04:47:13;;;;;;;5.75;4.18;;;16.60;99.90;;;;;;4995592;28;20137;-90
2021/07/13 04:49:40;;;;;;;6.15;3.33;;;16.70;99.90;;;;;;4995374;28;20134;-90
2021/07/13 04:52:07;;;;;;;4.95;4.00;;;16.80;99.90;;;;;;4995272;28;20060;-90
2021/07/13 04:54:34;;;;;;;6.72;3.97;;;17.00;99.90;;;;;;4995347;28;20109;-91
2021/07/13 04:57:02;;;;;;;7.25;3.88;;;17.20;99.90;;;;;;4995318;28;20117;-90
2021/07/13 04:59:29;;;;;;;7.07;3.92;;;17.20;99.90;;;;;;4995337;28;20058;-90
2021/07/13 05:01:55;;;;;;;5.68;4.20;;;17.30;99.90;;;;;;4994804;28;20060;-90
2021/07/13 05:04:24;;;;;;;8.18;4.53;;;17.40;99.90;;;;;;4995172;28;20050;-90
2021/07/13 05:06:51;;;;;;;8.32;4.50;;;17.30;99.90;;;;;;4994830;28;20156;-91
2021/07/13 05:09:19;;;;;;;6.78;4.88;;;17.30;99.90;;;;;;4995121;28;20053;-90
2021/07/13 05:11:46;;;;;;;10.48;4.22;;;17.10;99.90;;;;;;4994428;28;20137;-89
2021/07/13 05:14:14;;;;;;;14.02;4.93;;;17.10;99.90;;;;;;4994921;28;20046;-91
2021/07/13 05:16:40;;;;;;;5.35;3.85;;;17.10;99.90;;;;;;4994243;28;20064;-90
2021/07/13 05:19:09;;;;;;;14.13;4.45;;;17.20;99.90;;;;;;4994488;28;20053;-90
2021/07/13 05:21:38;;;;;;;6.65;4.70;;;17.20;99.90;;;;;;4994047;28;20054;-90
2021/07/13 05:24:05;;;;;;;9.18;4.65;;;17.20;99.90;;;;;;4994550;28;20050;-91
2021/07/13 05:26:31;;;;;;;10.63;4.85;;;17.30;99.90;;;;;;4994642;28;20076;-91
2021/07/13 05:29:03;;;;;;;14.68;4.68;;;17.30;99.90;;;;;;4994535;28;20114;-90
2021/07/13 05:31:31;;;;;;;6.47;4.68;;;17.20;99.90;;;;;;4994188;28;20135;-90
2021/07/13 05:33:57;;;;;;;11.50;4.90;;;17.20;99.90;;;;;;4994364;28;20046;-90
2021/07/13 05:36:25;;;;;;;8.15;4.00;;;17.20;99.90;;;;;;4994290;28;20054;-90
2021/07/13 05:38:53;;;;;;;7.38;4.85;;;17.20;99.90;;;;;;4994341;28;20050;-90
2021/07/13 05:41:21;;;;;;;11.10;4.20;;;17.20;99.90;;;;;;4994305;28;20134;-91
2021/07/13 05:43:49;;;;;;;10.70;4.90;;;17.30;99.90;;;;;;4994247;28;20054;-90
2021/07/13 05:46:16;;;;;;;7.95;4.70;;;17.40;99.90;;;;;;4994145;28;20057;-90
2021/07/13 05:48:44;;;;;;;7.72;4.53;;;17.50;99.90;;;;;;4994447;28;20405;-90
2021/07/13 05:51:11;;;;;;;6.82;4.35;;;17.60;99.90;;;;;;4994371;28;20125;-89
2021/07/13 05:53:37;;;;;;;4.93;4.43;;;17.60;99.90;;;;;;4994174;28;20418;-90
2021/07/13 05:56:05;;;;;;;6.70;4.18;;;17.70;99.90;;;;;;4994291;28;20054;-90
2021/07/13 05:58:32;;;;;;;4.97;4.25;;;17.70;99.90;;;;;;4994137;28;20123;-90
2021/07/13 06:00:58;;;;;;;7.75;3.90;;;17.90;99.90;;;;;;4994077;28;20114;-91
2021/07/13 06:03:25;;;;;;;8.88;4.30;;;18.00;99.90;;;;;;4994398;28;20146;-89
2021/07/13 06:05:52;;;;;;;5.47;4.00;;;18.30;99.90;;;;;;4993921;28;20054;-90
2021/07/13 06:08:19;;;;;;;4.50;3.83;;;18.60;99.90;;;;;;4994224;28;20058;-90
2021/07/13 06:10:45;;;;;;;6.13;3.50;;;19.00;99.90;;;;;;4994285;28;20048;-89
2021/07/13 06:13:12;;;;;;;5.20;3.60;;;19.60;99.90;;;;;;4993500;28;20076;-91
2021/07/13 06:15:39;;;;;;;6.03;3.63;;;20.50;99.90;;;;;;4993525;28;20060;-90
2021/07/13 06:18:06;;;;;;;4.40;3.20;;;21.20;99.90;;;;;;4993903;28;20051;-91
2021/07/13 06:20:34;;;;;;;3.25;2.95;;;22.30;99.90;;;;;;4994132;28;20102;-91
2021/07/13 06:23:02;;;;;;;5.15;3.58;;;23.20;99.90;;;;;;4993888;28;20054;-90
2021/07/13 06:25:29;;;;;;;3.45;3.15;;;23.30;99.90;;;;;;4993720;28;20049;-90
2021/07/13 06:27:56;;;;;;;5.68;3.40;;;23.70;99.90;;;;;;4993698;28;20141;-90
2021/07/13 06:30:22;;;;;;;8.02;4.03;;;24.00;99.90;;;;;;4993624;28;20415;-90
2021/07/13 06:32:49;;;;;;;5.90;3.90;;;23.50;99.90;;;;;;4992997;28;20050;-90
2021/07/13 06:35:16;;;;;;;6.03;3.15;;;23.40;99.90;;;;;;4993675;28;20129;-91
2021/07/13 06:37:43;;;;;;;5.63;3.25;;;23.80;99.90;;;;;;4993652;28;20510;-91
2021/07/13 06:40:11;;;;;;;9.70;4.05;;;24.10;99.90;;;;;;4993440;28;20085;-91
2021/07/13 06:42:38;;;;;;;9.52;4.35;;;24.20;99.90;;;;;;4993473;28;20054;-91
2021/07/13 06:45:06;;;;;;;8.05;3.75;;;23.80;99.90;;;;;;4993441;28;20056;-92
2021/07/13 06:47:32;;;;;;;9.75;4.38;;;23.30;99.90;;;;;;4993712;28;20455;-91
2021/07/13 06:49:59;;;;;;;6.95;3.70;;;23.10;99.90;;;;;;4993756;28;20050;-91
2021/07/13 06:52:26;;;;;;;4.90;3.45;;;22.80;99.90;;;;;;4993688;28;20054;-93
2021/07/13 06:54:53;;;;;;;5.53;3.50;;;22.60;99.90;;;;;;4993268;28;20133;-91
2021/07/13 06:57:21;;;;;;;13.88;4.53;;;22.40;99.90;;;;;;4993424;28;20141;-91
2021/07/13 06:59:49;;;;;;;13.18;5.20;;;22.00;99.90;;;;;;4993587;28;20074;-91
2021/07/13 07:02:16;;;;;;;12.38;5.28;;;21.60;99.90;;;;;;4993994;28;20133;-91
2021/07/13 07:04:43;;;;;;;13.20;4.78;;;21.50;99.90;;;;;;4995477;28;20456;-91
2021/07/13 07:07:09;;;;;;;13.52;4.80;;;21.30;99.90;;;;;;4995035;28;20058;-91
2021/07/13 07:09:36;;;;;;;13.50;5.20;;;21.50;99.90;;;;;;4993410;28;20046;-92
2021/07/13 07:12:03;;;;;;;11.85;4.60;;;21.50;99.90;;;;;;4993256;28;20075;-92
2021/07/13 07:14:30;;;;;;;6.63;4.10;;;21.60;99.90;;;;;;4993422;28;20046;-91
2021/07/13 07:16:56;;;;;;;5.65;3.50;;;21.60;99.90;;;;;;4993534;28;20050;-92
2021/07/13 07:19:23;;;;;;;3.67;3.40;;;21.40;99.90;;;;;;4993300;28;20050;-91
2021/07/13 07:21:51;;;;;;;12.77;4.70;;;21.30;99.90;;;;;;4992864;28;20051;-91
2021/07/13 07:24:19;;;;;;;11.75;4.32;;;21.40;99.90;;;;;;4993396;28;20555;-91
2021/07/13 07:26:45;;;;;;;7.03;4.50;;;21.40;99.90;;;;;;4992676;28;20050;-91
2021/07/13 07:29:12;;;;;;;7.18;3.47;;;21.50;99.90;;;;;;4993500;28;20414;-91
2021/07/13 07:31:40;;;;;;;8.07;4.13;;;21.70;99.90;;;;;;4993851;28;20145;-90
2021/07/13 07:34:07;;;;;;;5.00;3.63;;;21.90;99.90;;;;;;4992951;28;20046;-92
2021/07/13 07:36:34;;;;;;;8.07;4.20;;;22.00;99.90;;;;;;4993268;28;20054;-93
2021/07/13 07:39:02;;;;;;;6.78;3.50;;;22.00;99.90;;;;;;4992998;28;20042;-93
2021/07/13 07:41:29;;;;;;;6.13;3.80;;;21.90;99.90;;;;;;4992840;28;20143;-92
2021/07/13 07:43:56;;;;;;;8.40;3.72;;;22.40;99.90;;;;;;4994275;28;20053;-91
2021/07/13 07:46:23;;;;;;;9.30;3.58;;;23.40;99.90;;;;;;4996298;28;20104;-91
2021/07/13 07:48:49;;;;;;;6.63;4.10;;;23.80;99.90;;;;;;4996777;28;20487;-91
2021/07/13 07:51:17;;;;;;;6.68;3.97;;;24.50;99.90;;;;;;4994770;28;20474;-91
2021/07/13 07:53:44;;;;;;;8.13;3.85;;;24.50;99.90;;;;;;4997475;28;20089;-92
2021/07/13 07:56:11;;;;;;;4.95;3.97;;;24.90;99.90;;;;;;4996565;28;20189;-91
2021/07/13 07:58:37;;;;;;;7.78;4.10;;;24.80;99.90;;;;;;4997270;28;20070;-91
2021/07/13 08:01:04;;;;;;;6.22;3.55;;;24.90;99.90;;;;;;4997251;28;20061;-92
2021/07/13 08:03:31;;;;;;;8.25;3.83;;;25.40;99.90;;;;;;4996637;28;20054;-92
2021/07/13 08:05:59;;;;;;;6.50;3.97;;;24.80;99.90;;;;;;4996043;28;20137;-91
2021/07/13 08:08:25;;;;;;;6.13;3.97;;;24.40;99.90;;;;;;4996711;28;20140;-89
2021/07/13 08:10:52;;;;;;;6.55;3.78;;;24.30;99.90;;;;;;4996429;28;20047;-90
2021/07/13 08:13:19;;;;;;;6.63;3.67;;;24.30;99.90;;;;;;4996026;28;20141;-91
2021/07/13 08:15:45;;;;;;;6.13;3.80;;;24.30;99.90;;;;;;4995777;28;20054;-91
2021/07/13 08:18:12;;;;;;;7.07;3.33;;;24.10;99.90;;;;;;4996022;28;20052;-88
2021/07/13 08:20:39;;;;;;;4.90;3.78;;;24.00;99.90;;;;;;4995992;28;20057;-90
2021/07/13 08:23:06;;;;;;;4.25;3.35;;;23.90;99.90;;;;;;4996081;28;20050;-91
2021/07/13 08:25:33;;;;;;;5.05;3.90;;;23.90;99.90;;;;;;4996607;28;20141;-91
2021/07/13 08:27:59;;;;;;;7.03;4.13;;;24.00;99.90;;;;;;4995733;28;20141;-91
2021/07/13 08:30:27;;;;;;;3.90;3.50;;;23.90;99.90;;;;;;4995755;28;20054;-92
2021/07/13 08:32:55;;;;;;;4.30;3.75;;;23.90;99.90;;;;;;4996066;28;20535;-91
2021/07/13 08:35:22;;;;;;;3.83;3.53;;;24.00;99.90;;;;;;4995668;28;20145;-92
2021/07/13 08:37:51;;;;;;;7.53;3.63;;;24.10;99.90;;;;;;4995869;28;20140;-93
2021/07/13 08:40:18;;;;;;;6.15;4.13;;;24.30;99.90;;;;;;4995530;28;20104;-91
2021/07/13 08:42:45;;;;;;;5.85;4.07;;;24.30;99.90;;;;;;4995497;28;20073;-91
2021/07/13 08:45:15;;;;;;;6.35;4.07;;;23.90;99.90;;;;;;4995629;28;20068;-91
2021/07/13 08:47:44;;;;;;;4.82;3.33;;;24.10;99.90;;;;;;4995166;28;20137;-91
2021/07/13 08:50:12;;;;;;;8.23;3.63;;;24.30;99.90;;;;;;4995366;28;20499;-90
2021/07/13 08:52:39;;;;;;;5.10;3.50;;;24.70;99.90;;;;;;4995461;28;20068;-91
2021/07/13 08:55:07;;;;;;;10.18;4.00;;;25.10;99.90;;;;;;4994465;28;20054;-91
2021/07/13 08:57:36;;;;;;;3.95;3.65;;;25.80;99.90;;;;;;4995316;28;20047;-90
2021/07/13 09:00:09;;;;;;;4.00;3.40;;;27.10;99.90;;;;;;4995404;28;20120;-87
2021/07/13 09:02:36;;;;;;;4.30;3.20;;;28.70;99.90;;;;;;4995283;28;20046;-91
2021/07/13 09:05:03;;;;;;;3.53;3.10;;;29.20;99.90;;;;;;4995179;28;20050;-91
2021/07/13 09:07:30;;;;;;;5.25;3.33;;;30.20;99.90;;;;;;4995242;28;20054;-89
2021/07/13 09:10:05;;;;;;;3.70;3.30;;;31.40;97.90;;;;;;4994979;28;20142;-89
2021/07/13 09:12:32;;;;;;;5.32;3.00;;;31.40;94.40;;;;;;4994885;28;20058;-93
2021/07/13 09:15:05;;;;;;;5.57;3.10;;;30.70;93.70;;;;;;4994995;28;20054;-91
2021/07/13 09:17:33;;;;;;;;;;;30.00;96.60;;;;;;4995424;28;20057;-91
2021/07/13 09:20:07;;;;;;;4.55;3.10;;;29.60;98.50;;;;;;4995257;28;19925;-90
2021/07/13 09:22:35;;;;;;;3.10;2.90;;;29.00;99.90;;;;;;4994814;28;20072;-90
2021/07/13 09:25:28;;;;;;;3.08;2.67;;;28.40;99.90;;;;;;4995638;28;20058;-91
2021/07/13 09:28:08;;;;;;;2.45;2.25;;;28.40;99.90;;;;;;4996918;28;20042;-91
2021/07/13 09:30:37;;;;;;;2.17;2.08;;;27.90;99.90;;;;;;4994873;28;20152;-89
2021/07/13 09:33:19;;;;;;;2.28;2.08;;;27.70;99.90;;;;;;4994533;28;20046;-90
2021/07/13 09:36:11;;;;;;;3.35;2.00;;;27.40;99.90;;;;;;4994502;28;20513;-90
2021/07/13 09:38:40;;;;;;;2.90;2.22;;;27.60;99.90;;;;;;4994558;28;20054;-94
2021/07/13 09:41:15;;;;;;;2.40;2.20;;;27.50;99.90;;;;;;4997291;28;20446;-91
2021/07/13 09:44:01;;;;;;;2.50;2.28;;;27.20;99.90;;;;;;4994388;28;20054;-91
2021/07/13 09:46:34;;;;;;;2.20;2.10;;;26.90;99.90;;;;;;4994615;28;20050;-90
2021/07/13 09:49:12;;;;;;;2.10;2.00;;;26.50;99.90;;;;;;4994582;28;20050;-90
2021/07/13 09:52:00;;;;;;;2.30;2.10;;;26.20;99.90;;;;;;4994289;28;20054;-91
2021/07/13 09:54:41;;;;;;;2.40;2.20;;;26.00;99.90;;;;;;4994448;28;20499;-91
2021/07/13 09:57:15;;;;;;;2.00;1.80;;;25.80;99.90;;;;;;4994215;28;20105;-91
2021/07/13 09:59:47;;;;;;;3.20;1.88;;;25.60;99.90;;;;;;4994296;28;20061;-91
2021/07/13 10:02:18;;;;;;;2.55;2.40;;;25.50;99.90;;;;;;4994059;28;20061;-91
2021/07/13 10:04:49;;;;;;;5.88;2.50;;;25.30;99.90;;;;;;4994044;28;20046;-91
2021/07/13 10:07:19;;;;;;;3.97;1.98;;;25.30;99.90;;;;;;4994428;28;20506;-91
2021/07/13 10:09:51;;;;;;;4.32;2.00;;;25.10;99.90;;;;;;4994051;28;20057;-90
2021/07/13 10:12:25;;;;;;;2.83;2.40;;;25.30;99.90;;;;;;4993766;28;20125;-90
2021/07/13 10:14:55;;;;;;;2.33;2.08;;;25.10;99.90;;;;;;4994153;28;20137;-90
2021/07/13 10:17:27;;;;;;;1.75;1.65;;;25.30;99.90;;;;;;4994038;28;20510;-89
2021/07/13 10:20:11;;;;;;;3.42;1.70;;;26.00;99.90;;;;;;4994201;28;20475;-90
2021/07/13 10:22:44;;;;;;;3.53;1.87;;;26.80;99.90;;;;;;4993583;28;20128;-90
2021/07/13 10:25:11;;;;;;;;;;;27.30;99.90;;;;;;4994418;28;20369;-91
2021/07/13 10:27:49;;;;;;;1.42;1.40;;;27.70;99.90;;;;;;4993972;28;20270;-91
2021/07/13 10:30:21;;;;;;;3.83;1.60;;;27.90;99.90;;;;;;4993495;28;20047;-90
2021/07/13 10:32:48;;;;;;;2.15;1.70;;;28.10;99.90;;;;;;4993480;28;20133;-91
2021/07/13 10:35:23;;;;;;;3.35;2.22;;;28.50;99.90;;;;;;4993673;28;20046;-91
2021/07/13 10:37:51;;;;;;;4.13;2.00;;;29.40;99.90;;;;;;4993792;28;20054;-87
2021/07/13 10:40:24;;;;;;;1.73;1.63;;;30.60;99.90;;;;;;4993703;28;20042;-91
2021/07/13 10:42:59;;;;;;;3.28;1.95;;;31.80;99.40;;;;;;4993878;28;20052;-94
2021/07/13 10:45:29;;;;;;;1.73;1.63;;;32.80;94.10;;;;;;4993129;28;20141;-87
2021/07/13 10:48:12;;;;;;;5.47;1.70;;;33.90;90.90;;;;;;4993612;28;20062;-87
2021/07/13 10:50:46;;;;;;;2.95;1.88;;;36.10;81.80;;;;;;4993760;28;20054;-87
2021/07/13 10:53:21;;;;;;;4.57;2.13;;;35.60;77.50;;;;;;4993663;28;20066;-90
2021/07/13 10:56:02;;;;;;;2.20;1.98;;;35.20;76.90;;;;;;4993520;28;20126;-91
2021/07/13 10:58:34;;;;;;;3.13;1.67;;;34.80;76.30;;;;;;4993553;28;20046;-88
2021/07/13 11:01:14;;;;;;;2.05;1.77;;;35.10;76.00;;;;;;4993680;28;20050;-86
2021/07/13 11:03:42;;;;;;;3.78;2.10;;;35.20;75.90;;;;;;4993439;28;20054;-87
2021/07/13 11:06:10;;;;;;;2.95;2.28;;;35.70;75.20;;;;;;4993079;28;20136;-89
2021/07/13 11:09:00;;;;;;;2.60;1.90;;;35.20;73.70;;;;;;4993149;28;20483;-87
2021/07/13 11:11:29;;;;;;;5.70;2.10;;;36.10;73.90;;;;;;4993163;28;20056;-85
2021/07/13 11:14:07;;;;;;;4.20;2.28;;;36.00;71.70;;;;;;4993321;28;20472;-86
2021/07/13 11:16:39;;;;;;;1.70;1.60;;;35.50;73.80;;;;;;4992933;28;20046;-91
2021/07/13 11:19:16;;;;;;;3.08;1.63;;;35.60;74.40;;;;;;4995123;28;20472;-86
2021/07/13 11:21:48;;;;;;;2.33;2.03;;;36.00;74.60;;;;;;4997207;28;20058;-88
2021/07/13 11:24:23;;;;;;;2.38;2.20;;;34.80;74.70;;;;;;4996860;28;20054;-89
2021/07/13 11:26:53;;;;;;;4.57;2.17;;;34.30;75.70;;;;;;4997159;28;20137;-89
2021/07/13 11:29:22;;;;;;;8.50;2.20;;;33.40;78.70;;;;;;4996981;28;20124;-86
2021/07/13 11:31:53;;;;;;;3.65;2.40;;;32.90;83.10;;;;;;4996917;28;20082;-88
2021/07/13 11:34:22;;;;;;;4.07;2.45;;;32.60;82.00;;;;;;4996766;28;20072;-91
2021/07/13 11:36:53;;;;;;;7.10;2.30;;;32.50;84.90;;;;;;4996648;28;20414;-90
2021/07/13 11:39:33;;;;;;;2.95;2.67;;;32.10;86.20;;;;;;4996558;28;20054;-88
2021/07/13 11:42:08;;;;;;;4.10;2.63;;;31.80;87.40;;;;;;4996709;28;20058;-90
2021/07/13 11:44:36;;;;;;;8.00;2.97;;;31.50;88.30;;;;;;4999022;28;20050;-91
2021/07/13 11:47:08;;;;;;;3.05;2.20;;;31.20;91.00;;;;;;4999617;28;20058;-89
2021/07/13 11:49:35;;;;;;;2.78;2.30;;;31.40;90.70;;;;;;4999158;28;20179;-89
2021/07/13 11:52:08;;;;;;;7.00;2.67;;;31.20;90.70;;;;;;4999422;28;20066;-90
2021/07/13 11:54:37;;;;;;;2.45;2.35;;;31.10;92.40;;;;;;4997982;28;20053;-92
2021/07/13 11:57:05;;;;;;;2.70;2.50;;;31.00;92.40;;;;;;4996452;28;20104;-88
2021/07/13 11:59:34;;;;;;;3.20;2.92;;;30.90;95.60;;;;;;4996069;28;20517;-88
2021/07/13 12:02:04;;;;;;;3.03;2.60;;;30.80;95.50;;;;;;4996430;28;20140;-88
2021/07/13 12:04:35;;;;;;;4.95;2.83;;;30.90;95.80;;;;;;4995658;28;20054;-90
2021/07/13 12:07:03;;;;;;;2.70;2.50;;;30.30;96.70;;;;;;4996219;28;20054;-88
2021/07/13 12:09:34;;;;;;;8.07;3.00;;;30.30;98.80;;;;;;4996201;28;20054;-88
2021/07/13 12:12:06;;;;;;;3.05;2.55;;;30.30;99.90;;;;;;4995804;28;20125;-89
2021/07/13 12:14:34;;;;;;;4.78;2.70;;;30.20;99.90;;;;;;4996215;28;20061;-89
2021/07/13 12:17:00;;;;;;;3.92;2.65;;;30.40;99.90;;;;;;4995955;28;20064;-89
2021/07/13 12:19:29;;;;;;;3.47;3.08;;;30.70;99.90;;;;;;4995916;28;20097;-89
2021/07/13 12:21:59;;;;;;;8.13;3.10;;;30.60;99.90;;;;;;4996206;28;20441;-91
2021/07/13 12:24:35;;;;;;;3.65;3.33;;;30.60;99.90;;;;;;4995411;28;20061;-92
2021/07/13 12:27:07;;;;;;;5.00;2.92;;;30.30;99.90;;;;;;4995981;28;20050;-87
2021/07/13 12:29:39;;;;;;;2.78;2.60;;;30.20;99.90;;;;;;4995339;28;20055;-94
2021/07/13 12:32:29;;;;;;;4.28;2.97;;;30.10;99.90;;;;;;4996203;28;20411;-90
2021/07/13 12:35:02;;;;;;;2.45;2.25;;;30.00;99.90;;;;;;4994945;28;20130;-89
2021/07/13 12:37:31;;;;;;;3.80;2.90;;;30.00;99.90;;;;;;4996127;28;20050;-90
2021/07/13 12:40:01;;;;;;;2.97;2.72;;;30.20;99.90;;;;;;4996004;28;20445;-89
2021/07/13 12:42:38;;;;;;;5.68;2.88;;;30.20;99.90;;;;;;4993918;28;20088;-89
2021/07/13 12:45:16;;;;;;;4.63;2.85;;;30.30;99.90;;;;;;4994213;28;20502;-93
2021/07/13 12:47:50;;;;;;;3.72;3.45;;;29.90;99.90;;;;;;4994772;28;20145;-92
2021/07/13 12:50:31;;;;;;;3.30;3.00;;;30.10;99.90;;;;;;4994320;28;20141;-90
2021/07/13 12:53:00;;;;;;;3.00;2.80;;;30.30;99.90;;;;;;4994282;28;20141;-89
2021/07/13 12:55:37;;;;;;;5.53;2.70;;;31.00;99.90;;;;;;4994796;28;20129;-89
2021/07/13 12:58:20;;;;;;;3.35;3.15;;;31.30;99.90;;;;;;4995807;28;20145;-90
2021/07/13 13:00:54;;;;;;;7.97;2.90;;;31.30;99.90;;;;;;4995679;28;20555;-89